Time;durP1;ratioP1;P1;durP2;ratioP2;P2;SDS_P1;SDS_P2;PMS_P1;PMS_P2;Temp;Humidity;BMP_temperature;BMP_pressure;BME280_temperature;BME280_humidity;BME280_pressure;Samples;Min_cycle;Max_cycle;Signal;HPM_P1;HPM_P2
2022/07/23 00:01:47;;;;;;;5.00;2.70;;;;;;;;;;6278749;22;20560;-81
2022/07/23 00:04:14;;;;;;;4.45;2.60;;;;;;;;;;6306508;22;20542;-81
2022/07/23 00:06:41;;;;;;;5.07;2.83;;;;;;;;;;6306234;22;20455;-81
2022/07/23 00:09:08;;;;;;;5.75;2.55;;;;;;;;;;6310707;22;20479;-81
2022/07/23 00:11:35;;;;;;;6.95;2.70;;;;;;;;;;6307262;22;20110;-82
2022/07/23 00:14:05;;;;;;;3.95;2.60;;;;;;;;;;6308084;22;20759;-81
2022/07/23 00:16:32;;;;;;;7.97;2.75;;;;;;;;;;6306159;22;20506;-81
2022/07/23 00:19:02;;;;;;;4.57;2.53;;;;;;;;;;6304631;22;20103;-81
2022/07/23 00:21:31;;;;;;;7.03;2.58;;;;;;;;;;6305765;22;20030;-82
2022/07/23 00:23:58;;;;;;;3.95;2.10;;;;;;;;;;6279562;22;20098;-81
2022/07/23 00:26:25;;;;;;;3.08;2.38;;;;;;;;;;6278477;22;20020;-81
2022/07/23 00:28:53;;;;;;;7.68;3.10;;;;;;;;;;6306168;22;20158;-81
2022/07/23 00:31:20;;;;;;;6.65;2.97;;;;;;;;;;6305645;22;20027;-81
2022/07/23 00:33:47;;;;;;;8.05;3.00;;;;;;;;;;6306802;22;20015;-81
2022/07/23 00:36:14;;;;;;;5.30;3.03;;;;;;;;;;6306951;22;20082;-80
2022/07/23 00:38:41;;;;;;;6.50;3.30;;;;;;;;;;6308094;22;20039;-81
2022/07/23 00:41:08;;;;;;;5.60;3.20;;;;;;;;;;6308962;22;20030;-83
2022/07/23 00:43:36;;;;;;;5.65;3.20;;;;;;;;;;6307497;22;20020;-82
2022/07/23 00:46:03;;;;;;;4.20;2.95;;;;;;;;;;6307514;22;20028;-82
2022/07/23 00:48:33;;;;;;;5.00;2.85;;;;;;;;;;6304642;22;20062;-81
2022/07/23 00:51:00;;;;;;;5.72;3.10;;;;;;;;;;6307175;22;20027;-82
2022/07/23 00:53:27;;;;;;;4.90;2.85;;;;;;;;;;6308456;22;20031;-82
2022/07/23 00:55:54;;;;;;;5.97;3.20;;;;;;;;;;6314724;22;20245;-83
2022/07/23 00:58:21;;;;;;;8.00;3.30;;;;;;;;;;6322810;22;20024;-82
2022/07/23 01:00:49;;;;;;;5.22;2.60;;;;;;;;;;6321139;22;20027;-81
2022/07/23 01:03:16;;;;;;;4.95;2.90;;;;;;;;;;6306924;22;20023;-82
2022/07/23 01:05:43;;;;;;;5.35;3.10;;;;;;;;;;6310297;22;20012;-81
2022/07/23 01:08:10;;;;;;;6.18;3.08;;;;;;;;;;6310174;22;20070;-82
2022/07/23 01:10:37;;;;;;;7.80;3.22;;;;;;;;;;6306522;22;20020;-81
2022/07/23 01:13:06;;;;;;;5.88;2.85;;;;;;;;;;6305772;22;20436;-81
2022/07/23 01:15:34;;;;;;;4.78;2.97;;;;;;;;;;6277935;22;20023;-82
2022/07/23 01:18:02;;;;;;;8.75;3.00;;;;;;;;;;6306231;22;20024;-81
2022/07/23 01:20:30;;;;;;;6.93;3.20;;;;;;;;;;6276229;22;20510;-82
2022/07/23 01:22:57;;;;;;;4.95;3.05;;;;;;;;;;6306854;22;20771;-81
2022/07/23 01:25:25;;;;;;;4.90;2.90;;;;;;;;;;6310409;22;20047;-81
2022/07/23 01:27:52;;;;;;;5.43;3.00;;;;;;;;;;6306997;22;20023;-82
2022/07/23 01:30:20;;;;;;;7.05;3.13;;;;;;;;;;6305233;22;20027;-82
2022/07/23 01:32:47;;;;;;;6.72;2.75;;;;;;;;;;6305432;22;20030;-82
2022/07/23 01:35:14;;;;;;;9.00;2.70;;;;;;;;;;6302452;22;20020;-82
2022/07/23 01:37:41;;;;;;;8.02;2.85;;;;;;;;;;6278409;22;20062;-82
2022/07/23 01:40:09;;;;;;;7.07;2.80;;;;;;;;;;6305152;22;20034;-82
2022/07/23 01:42:36;;;;;;;4.03;2.70;;;;;;;;;;6305360;22;20080;-82
2022/07/23 01:45:04;;;;;;;3.88;2.70;;;;;;;;;;6305536;22;20467;-81
2022/07/23 01:47:31;;;;;;;5.75;2.67;;;;;;;;;;6305831;22;20460;-82
2022/07/23 01:49:58;;;;;;;5.50;3.40;;;;;;;;;;6305585;22;20030;-82
2022/07/23 01:52:26;;;;;;;5.75;2.95;;;;;;;;;;6278462;22;20115;-81
2022/07/23 01:54:53;;;;;;;5.07;2.97;;;;;;;;;;6305279;22;20818;-82
2022/07/23 01:57:20;;;;;;;3.75;2.45;;;;;;;;;;6305683;22;20515;-82
2022/07/23 01:59:47;;;;;;;2.88;2.35;;;;;;;;;;6304750;22;20106;-82
2022/07/23 02:02:14;;;;;;;5.65;2.70;;;;;;;;;;6306526;22;20103;-83
2022/07/23 02:04:41;;;;;;;6.53;2.60;;;;;;;;;;6304689;22;20058;-82
2022/07/23 02:07:08;;;;;;;4.72;2.83;;;;;;;;;;6305894;22;20034;-83
2022/07/23 02:09:36;;;;;;;5.90;2.70;;;;;;;;;;6303985;22;20024;-81
2022/07/23 02:12:03;;;;;;;3.03;2.58;;;;;;;;;;6306048;22;20078;-81
2022/07/23 02:14:30;;;;;;;6.97;2.78;;;;;;;;;;6305131;22;20023;-82
2022/07/23 02:17:00;;;;;;;6.03;3.08;;;;;;;;;;6279887;22;20104;-82
2022/07/23 02:19:27;;;;;;;3.85;2.72;;;;;;;;;;6303822;22;20027;-82
2022/07/23 02:21:54;;;;;;;4.70;2.60;;;;;;;;;;6305819;22;20051;-82
2022/07/23 02:24:22;;;;;;;5.00;2.75;;;;;;;;;;6305809;22;20058;-82
2022/07/23 02:26:49;;;;;;;6.07;3.90;;;;;;;;;;6305852;22;20034;-82
2022/07/23 02:29:16;;;;;;;4.80;3.20;;;;;;;;;;6277630;22;20783;-82
2022/07/23 02:31:46;;;;;;;5.00;2.90;;;;;;;;;;6305805;22;20019;-82
2022/07/23 02:34:14;;;;;;;7.50;2.80;;;;;;;;;;6304505;22;20102;-82
2022/07/23 02:36:41;;;;;;;7.70;2.80;;;;;;;;;;6303901;22;20042;-82
2022/07/23 02:39:08;;;;;;;4.60;2.90;;;;;;;;;;6278134;22;20103;-82
2022/07/23 02:41:35;;;;;;;5.10;2.90;;;;;;;;;;6305956;22;20025;-82
2022/07/23 02:44:02;;;;;;;5.78;3.13;;;;;;;;;;6277012;22;20030;-82
2022/07/23 02:46:29;;;;;;;9.75;3.60;;;;;;;;;;6304641;22;20035;-82
2022/07/23 02:48:56;;;;;;;4.28;2.92;;;;;;;;;;6305064;22;20031;-82
2022/07/23 02:51:24;;;;;;;10.63;3.53;;;;;;;;;;6304498;22;20143;-83
2022/07/23 02:53:51;;;;;;;6.22;3.22;;;;;;;;;;6305992;22;20023;-82
2022/07/23 02:56:18;;;;;;;8.77;3.58;;;;;;;;;;6305725;22;20032;-84
2022/07/23 02:58:46;;;;;;;5.20;2.75;;;;;;;;;;6277489;22;20027;-82
2022/07/23 03:01:13;;;;;;;5.03;2.78;;;;;;;;;;6305999;22;20056;-83
2022/07/23 03:03:40;;;;;;;5.57;2.90;;;;;;;;;;6305483;22;20467;-82
2022/07/23 03:06:07;;;;;;;2.85;2.20;;;;;;;;;;6306093;22;20082;-82
2022/07/23 03:08:34;;;;;;;5.63;2.70;;;;;;;;;;6278597;22;20518;-82
2022/07/23 03:11:01;;;;;;;6.05;2.72;;;;;;;;;;6305068;22;20027;-82
2022/07/23 03:13:29;;;;;;;5.72;2.58;;;;;;;;;;6304969;22;20086;-83
2022/07/23 03:15:57;;;;;;;6.60;2.60;;;;;;;;;;6306446;22;20105;-82
2022/07/23 03:18:24;;;;;;;5.78;2.80;;;;;;;;;;6305619;22;20485;-82
2022/07/23 03:20:54;;;;;;;5.57;2.75;;;;;;;;;;6306126;22;20023;-82
2022/07/23 03:23:21;;;;;;;5.88;2.60;;;;;;;;;;6306321;22;20459;-83
2022/07/23 03:25:49;;;;;;;8.35;3.35;;;;;;;;;;6305946;22;20058;-82
2022/07/23 03:28:20;;;;;;;7.63;2.55;;;;;;;;;;6305148;22;20470;-82
2022/07/23 03:30:48;;;;;;;4.15;2.60;;;;;;;;;;6306607;22;20028;-82
2022/07/23 03:33:16;;;;;;;3.72;2.67;;;;;;;;;;6307847;22;20103;-82
2022/07/23 03:35:44;;;;;;;4.63;2.67;;;;;;;;;;6317046;22;20031;-82
2022/07/23 03:38:13;;;;;;;8.10;2.80;;;;;;;;;;6327490;22;20928;-83
2022/07/23 03:40:40;;;;;;;6.47;2.80;;;;;;;;;;6326816;22;20064;-82
2022/07/23 03:43:07;;;;;;;4.13;2.33;;;;;;;;;;6327077;22;20027;-82
2022/07/23 03:45:34;;;;;;;3.50;2.40;;;;;;;;;;6307920;22;20031;-82
2022/07/23 03:48:01;;;;;;;4.90;2.67;;;;;;;;;;6279763;22;20027;-82
2022/07/23 03:50:31;;;;;;;4.53;2.40;;;;;;;;;;6305483;22;20020;-82
2022/07/23 03:52:58;;;;;;;6.15;2.63;;;;;;;;;;6306110;22;20098;-82
2022/07/23 03:55:25;;;;;;;7.65;3.00;;;;;;;;;;6305279;22;20027;-82
2022/07/23 03:57:52;;;;;;;5.75;2.97;;;;;;;;;;6305476;22;20027;-82
2022/07/23 04:00:19;;;;;;;3.97;2.70;;;;;;;;;;6277297;22;20030;-83
2022/07/23 04:02:46;;;;;;;7.30;2.90;;;;;;;;;;6306296;22;20034;-82
2022/07/23 04:05:13;;;;;;;5.60;2.65;;;;;;;;;;6277723;22;20028;-82
2022/07/23 04:07:40;;;;;;;5.65;2.83;;;;;;;;;;6277493;22;20466;-82
2022/07/23 04:10:08;;;;;;;4.78;2.60;;;;;;;;;;6304918;22;20114;-82
2022/07/23 04:12:35;;;;;;;5.53;2.78;;;;;;;;;;6304104;22;20059;-82
2022/07/23 04:15:02;;;;;;;6.35;3.20;;;;;;;;;;6277863;22;20032;-82
2022/07/23 04:17:30;;;;;;;5.90;2.80;;;;;;;;;;6305630;22;20093;-82
2022/07/23 04:19:57;;;;;;;5.65;3.15;;;;;;;;;;6306253;22;20528;-83
2022/07/23 04:22:24;;;;;;;7.20;3.42;;;;;;;;;;6278982;22;20411;-81
2022/07/23 04:24:51;;;;;;;7.32;3.20;;;;;;;;;;6306418;22;20529;-82
2022/07/23 04:27:19;;;;;;;8.80;3.33;;;;;;;;;;6279885;22;20024;-82
2022/07/23 04:29:46;;;;;;;6.30;2.95;;;;;;;;;;6305939;22;20095;-82
2022/07/23 04:32:13;;;;;;;5.82;2.90;;;;;;;;;;6306107;22;20023;-81
2022/07/23 04:34:40;;;;;;;4.22;2.78;;;;;;;;;;6306337;22;20054;-82
2022/07/23 04:37:07;;;;;;;4.93;2.75;;;;;;;;;;6307144;22;20540;-82
2022/07/23 04:39:34;;;;;;;9.32;3.20;;;;;;;;;;6277801;22;20941;-83
2022/07/23 04:42:01;;;;;;;6.35;2.90;;;;;;;;;;6306763;22;20026;-82
2022/07/23 04:44:30;;;;;;;5.53;3.10;;;;;;;;;;6306119;22;20031;-81
2022/07/23 04:46:57;;;;;;;4.80;2.80;;;;;;;;;;6306850;22;20404;-81
2022/07/23 04:49:24;;;;;;;4.30;2.75;;;;;;;;;;6278526;22;20030;-83
2022/07/23 04:51:51;;;;;;;5.50;3.05;;;;;;;;;;6306586;22;20094;-83
2022/07/23 04:54:18;;;;;;;5.70;2.95;;;;;;;;;;6306216;22;20346;-82
2022/07/23 04:56:45;;;;;;;7.38;2.90;;;;;;;;;;6306614;22;20091;-82
2022/07/23 04:59:13;;;;;;;5.18;3.08;;;;;;;;;;6306643;22;20023;-82
2022/07/23 05:01:41;;;;;;;8.07;3.30;;;;;;;;;;6304245;22;20099;-81
2022/07/23 05:04:08;;;;;;;5.38;3.40;;;;;;;;;;6279050;22;20758;-82
2022/07/23 05:06:36;;;;;;;4.72;2.97;;;;;;;;;;6305918;22;20627;-82
2022/07/23 05:09:05;;;;;;;7.20;3.05;;;;;;;;;;6305206;22;20027;-82
2022/07/23 05:11:32;;;;;;;9.10;3.58;;;;;;;;;;6306155;22;20077;-83
2022/07/23 05:14:00;;;;;;;8.13;3.92;;;;;;;;;;6307589;22;20450;-82
2022/07/23 05:16:27;;;;;;;6.32;3.75;;;;;;;;;;6279460;22;20338;-82
2022/07/23 05:18:54;;;;;;;6.15;3.45;;;;;;;;;;6306105;22;20031;-82
2022/07/23 05:21:21;;;;;;;9.68;4.70;;;;;;;;;;6307369;22;20970;-81
2022/07/23 05:23:48;;;;;;;5.57;3.38;;;;;;;;;;6305891;22;20028;-82
2022/07/23 05:26:15;;;;;;;6.15;4.05;;;;;;;;;;6306075;22;20054;-82
2022/07/23 05:28:42;;;;;;;5.40;3.63;;;;;;;;;;6304976;22;20795;-82
2022/07/23 05:31:16;;;;;;;8.27;4.20;;;;;;;;;;6306555;22;20075;-82
2022/07/23 05:33:43;;;;;;;6.43;3.60;;;;;;;;;;6305908;22;20620;-82
2022/07/23 05:36:10;;;;;;;5.78;3.13;;;;;;;;;;6307016;22;20463;-83
2022/07/23 05:38:37;;;;;;;5.10;3.40;;;;;;;;;;6305231;22;20016;-83
2022/07/23 05:41:05;;;;;;;7.63;3.88;;;;;;;;;;6306414;22;20020;-82
2022/07/23 05:43:32;;;;;;;5.90;3.70;;;;;;;;;;6305989;22;20111;-82
2022/07/23 05:45:59;;;;;;;8.90;4.53;;;;;;;;;;6305782;22;20054;-82
2022/07/23 05:48:26;;;;;;;7.95;4.43;;;;;;;;;;6305166;22;20214;-82
2022/07/23 05:50:53;;;;;;;10.25;4.40;;;;;;;;;;6306123;22;20073;-83
2022/07/23 05:53:21;;;;;;;9.75;4.57;;;;;;;;;;6305695;22;20051;-83
2022/07/23 05:55:50;;;;;;;9.18;4.78;;;;;;;;;;6307423;22;20833;-82
2022/07/23 05:58:17;;;;;;;7.80;4.20;;;;;;;;;;6310134;22;20027;-83
2022/07/23 06:00:46;;;;;;;8.07;4.45;;;;;;;;;;6307747;22;20467;-82
2022/07/23 06:03:13;;;;;;;11.25;4.13;;;;;;;;;;6308068;22;20497;-82
2022/07/23 06:05:40;;;;;;;10.43;3.97;;;;;;;;;;6307139;22;20024;-82
2022/07/23 06:08:07;;;;;;;7.72;3.20;;;;;;;;;;6306073;22;20482;-83
2022/07/23 06:10:34;;;;;;;8.98;3.72;;;;;;;;;;6284106;22;20044;-82
2022/07/23 06:13:02;;;;;;;8.98;4.00;;;;;;;;;;6280506;22;20534;-82
2022/07/23 06:15:30;;;;;;;6.35;3.25;;;;;;;;;;6308248;22;20035;-82
2022/07/23 06:17:57;;;;;;;8.45;3.60;;;;;;;;;;6312205;22;20028;-83
2022/07/23 06:20:24;;;;;;;9.25;2.70;;;;;;;;;;6320048;22;20050;-83
2022/07/23 06:22:51;;;;;;;4.50;2.53;;;;;;;;;;6320931;22;20077;-82
2022/07/23 06:25:20;;;;;;;4.28;2.55;;;;;;;;;;6325873;22;20019;-84
2022/07/23 06:27:47;;;;;;;5.03;2.80;;;;;;;;;;6298056;22;20046;-83
2022/07/23 06:30:18;;;;;;;4.40;2.60;;;;;;;;;;6321129;22;20867;-82
2022/07/23 06:32:46;;;;;;;5.05;2.67;;;;;;;;;;6283683;22;20027;-82
2022/07/23 06:35:13;;;;;;;3.20;2.25;;;;;;;;;;6307099;22;20050;-83
2022/07/23 06:37:40;;;;;;;8.68;3.10;;;;;;;;;;6303390;22;20073;-83
2022/07/23 06:40:08;;;;;;;5.03;2.83;;;;;;;;;;6304846;22;20539;-82
2022/07/23 06:42:39;;;;;;;7.28;2.83;;;;;;;;;;6304085;22;20054;-82
2022/07/23 06:45:07;;;;;;;7.47;2.70;;;;;;;;;;6305562;22;20023;-82
2022/07/23 06:47:34;;;;;;;5.53;2.40;;;;;;;;;;6306132;22;20115;-82
2022/07/23 06:50:01;;;;;;;7.88;2.50;;;;;;;;;;6305577;22;20019;-83
2022/07/23 06:52:28;;;;;;;4.97;2.33;;;;;;;;;;6304961;22;20036;-83
2022/07/23 06:54:55;;;;;;;4.75;1.50;;;;;;;;;;6305222;22;20074;-82
2022/07/23 06:57:23;;;;;;;5.15;1.80;;;;;;;;;;6304569;22;20447;-83
2022/07/23 06:59:50;;;;;;;4.03;1.77;;;;;;;;;;6276938;22;20027;-82
2022/07/23 07:02:22;;;;;;;3.13;1.85;;;;;;;;;;6304277;22;20097;-82
2022/07/23 07:04:49;;;;;;;3.17;1.60;;;;;;;;;;6276566;22;20494;-82
2022/07/23 07:07:16;;;;;;;3.45;1.92;;;;;;;;;;6302641;22;20020;-82
2022/07/23 07:09:44;;;;;;;3.30;1.67;;;;;;;;;;6304950;22;20356;-82
2022/07/23 07:12:14;;;;;;;1.73;1.38;;;;;;;;;;6276621;22;20367;-82
2022/07/23 07:14:41;;;;;;;4.63;1.45;;;;;;;;;;6302789;22;20097;-83
2022/07/23 07:17:10;;;;;;;5.70;1.92;;;;;;;;;;6304119;22;20051;-82
2022/07/23 07:19:37;;;;;;;2.17;1.55;;;;;;;;;;6302605;22;20421;-81
2022/07/23 07:22:04;;;;;;;4.30;2.05;;;;;;;;;;6301273;22;20095;-82
2022/07/23 07:24:31;;;;;;;5.32;1.60;;;;;;;;;;6302778;22;20095;-82
2022/07/23 07:27:06;;;;;;;3.90;2.00;;;;;;;;;;6302330;22;20071;-83
2022/07/23 07:29:34;;;;;;;5.70;2.00;;;;;;;;;;6273986;22;20099;-80
2022/07/23 07:32:01;;;;;;;5.40;1.83;;;;;;;;;;6274672;22;20095;-84
2022/07/23 07:34:28;;;;;;;3.17;1.73;;;;;;;;;;6274746;22;20273;-84
2022/07/23 07:36:56;;;;;;;4.50;1.40;;;;;;;;;;6303029;22;20546;-83
2022/07/23 07:39:25;;;;;;;5.53;1.80;;;;;;;;;;6298289;22;20030;-85
2022/07/23 07:41:52;;;;;;;4.15;1.65;;;;;;;;;;6304509;22;20043;-83
2022/07/23 07:44:19;;;;;;;5.13;1.60;;;;;;;;;;6302108;22;20066;-83
2022/07/23 07:46:46;;;;;;;3.85;1.80;;;;;;;;;;6274632;22;20402;-82
2022/07/23 07:49:13;;;;;;;4.25;1.80;;;;;;;;;;6303302;22;20023;-83
2022/07/23 07:51:42;;;;;;;6.38;1.75;;;;;;;;;;6304297;22;20023;-83
2022/07/23 07:54:12;;;;;;;5.13;1.70;;;;;;;;;;6303957;22;20426;-83
2022/07/23 07:56:39;;;;;;;3.72;1.35;;;;;;;;;;6304183;22;20829;-83
2022/07/23 07:59:06;;;;;;;4.78;1.60;;;;;;;;;;6277849;22;20027;-83
2022/07/23 08:01:34;;;;;;;4.20;1.30;;;;;;;;;;6303147;22;20698;-83
2022/07/23 08:04:01;;;;;;;3.75;1.33;;;;;;;;;;6303724;22;20044;-83
2022/07/23 08:06:29;;;;;;;5.95;1.63;;;;;;;;;;6302137;22;20034;-83
2022/07/23 08:08:56;;;;;;;9.63;1.67;;;;;;;;;;6302585;22;20027;-84
2022/07/23 08:11:23;;;;;;;6.30;1.50;;;;;;;;;;6278265;22;20733;-83
2022/07/23 08:13:50;;;;;;;6.40;1.52;;;;;;;;;;6305705;22;20024;-84
2022/07/23 08:16:17;;;;;;;3.17;1.33;;;;;;;;;;6304910;22;20359;-85
2022/07/23 08:18:45;;;;;;;3.67;1.65;;;;;;;;;;6304354;22;20719;-84
2022/07/23 08:21:12;;;;;;;4.53;1.38;;;;;;;;;;6305478;22;21045;-83
2022/07/23 08:23:39;;;;;;;4.18;1.40;;;;;;;;;;6304922;22;20026;-83
2022/07/23 08:26:06;;;;;;;3.33;1.40;;;;;;;;;;6304731;22;20098;-84
2022/07/23 08:28:33;;;;;;;2.75;1.10;;;;;;;;;;6304832;22;20027;-85
2022/07/23 08:31:01;;;;;;;1.33;1.17;;;;;;;;;;6277286;22;20032;-83
2022/07/23 08:33:28;;;;;;;3.70;1.40;;;;;;;;;;6277650;22;20414;-83
2022/07/23 08:36:02;;;;;;;3.78;1.40;;;;;;;;;;6279371;22;20028;-83
2022/07/23 08:38:30;;;;;;;9.00;1.58;;;;;;;;;;6303725;22;20095;-84
2022/07/23 08:40:57;;;;;;;3.33;1.33;;;;;;;;;;6305907;22;20743;-84
2022/07/23 08:43:25;;;;;;;4.05;1.50;;;;;;;;;;6304574;22;20098;-84
2022/07/23 08:45:58;;;;;;;3.95;1.35;;;;;;;;;;6305101;22;20463;-83
2022/07/23 08:48:27;;;;;;;2.55;1.17;;;;;;;;;;6303909;22;20024;-84
2022/07/23 08:50:56;;;;;;;6.05;1.50;;;;;;;;;;6305929;22;20023;-83
2022/07/23 08:53:25;;;;;;;5.20;1.60;;;;;;;;;;6303865;22;20020;-84
2022/07/23 08:55:54;;;;;;;2.63;1.40;;;;;;;;;;6304466;22;20011;-83
2022/07/23 08:58:22;;;;;;;2.00;1.38;;;;;;;;;;6302905;22;20517;-84
2022/07/23 09:00:54;;;;;;;3.13;1.30;;;;;;;;;;6305359;22;20074;-83
2022/07/23 09:03:22;;;;;;;3.10;1.33;;;;;;;;;;6301520;22;20239;-82
2022/07/23 09:05:50;;;;;;;4.43;1.50;;;;;;;;;;6310186;22;20067;-84
2022/07/23 09:08:19;;;;;;;4.90;1.20;;;;;;;;;;6311839;22;20099;-82
2022/07/23 09:10:56;;;;;;;2.85;1.33;;;;;;;;;;6308064;22;20675;-82
2022/07/23 09:13:25;;;;;;;2.38;1.30;;;;;;;;;;6301977;22;20511;-82
2022/07/23 09:15:53;;;;;;;5.60;1.65;;;;;;;;;;6275366;22;20110;-82
2022/07/23 09:18:28;;;;;;;4.70;1.67;;;;;;;;;;6275312;22;20028;-83
2022/07/23 09:21:08;;;;;;;5.03;1.30;;;;;;;;;;6304483;22;20065;-83
2022/07/23 09:23:39;;;;;;;3.88;1.48;;;;;;;;;;6303234;22;20574;-82
2022/07/23 09:26:22;;;;;;;2.75;1.50;;;;;;;;;;6305592;22;20066;-83
2022/07/23 09:29:00;;;;;;;3.00;1.58;;;;;;;;;;6305279;22;20107;-84
2022/07/23 09:31:33;;;;;;;2.08;1.33;;;;;;;;;;6303055;22;20400;-81
2022/07/23 09:34:30;;;;;;;2.55;1.40;;;;;;;;;;6305946;22;20019;-84
2022/07/23 09:36:59;;;;;;;2.80;1.50;;;;;;;;;;6231347;22;20027;-83
2022/07/23 09:39:30;;;;;;;6.70;1.30;;;;;;;;;;6277427;22;20109;-83
2022/07/23 09:41:58;;;;;;;3.33;1.40;;;;;;;;;;6302876;22;20130;-84
2022/07/23 09:44:25;;;;;;;7.35;1.65;;;;;;;;;;6303406;22;20030;-82
2022/07/23 09:46:58;;;;;;;5.43;1.65;;;;;;;;;;6304318;22;20030;-83
2022/07/23 09:49:25;;;;;;;3.53;1.63;;;;;;;;;;6304387;22;20091;-84
2022/07/23 09:52:00;;;;;;;2.33;1.10;;;;;;;;;;6304387;22;20085;-84
2022/07/23 09:54:32;;;;;;;2.05;1.40;;;;;;;;;;6276008;22;20558;-83
2022/07/23 09:57:00;;;;;;;3.50;1.48;;;;;;;;;;6302840;22;20213;-83
2022/07/23 09:59:30;;;;;;;2.67;1.30;;;;;;;;;;6271671;22;20505;-83
2022/07/23 10:01:59;;;;;;;4.53;1.77;;;;;;;;;;6302231;22;20127;-84
2022/07/23 10:04:30;;;;;;;2.95;1.40;;;;;;;;;;6302507;22;21023;-83
2022/07/23 10:06:59;;;;;;;3.90;1.60;;;;;;;;;;6303870;22;20019;-83
2022/07/23 10:09:28;;;;;;;3.83;1.35;;;;;;;;;;6309293;22;20075;-84
2022/07/23 10:12:00;;;;;;;5.70;1.40;;;;;;;;;;6302521;22;20451;-84
2022/07/23 10:14:31;;;;;;;4.30;1.50;;;;;;;;;;6304987;22;20112;-83
2022/07/23 10:16:58;;;;;;;3.22;1.50;;;;;;;;;;6304605;22;20298;-86
2022/07/23 10:19:26;;;;;;;5.50;1.40;;;;;;;;;;6309868;22;20034;-84
2022/07/23 10:21:55;;;;;;;2.25;1.27;;;;;;;;;;6304917;22;20106;-84
2022/07/23 10:24:22;;;;;;;3.33;1.50;;;;;;;;;;6276361;22;20467;-84
2022/07/23 10:27:04;;;;;;;3.67;1.50;;;;;;;;;;6304520;22;20074;-84
2022/07/23 10:29:39;;;;;;;3.20;1.30;;;;;;;;;;6304396;22;20578;-84
2022/07/23 10:32:15;;;;;;;2.83;1.15;;;;;;;;;;6277794;22;20471;-84
2022/07/23 10:34:53;;;;;;;2.85;1.30;;;;;;;;;;6303972;22;20070;-85
2022/07/23 10:37:31;;;;;;;3.42;1.23;;;;;;;;;;6302772;22;20461;-84
2022/07/23 10:40:18;;;;;;;3.58;1.30;;;;;;;;;;6307092;22;20476;-84
2022/07/23 10:42:48;;;;;;;2.63;1.20;;;;;;;;;;6302992;22;20113;-84
2022/07/23 10:45:27;;;;;;;4.20;1.70;;;;;;;;;;6305022;22;20106;-84
2022/07/23 10:47:55;;;;;;;3.42;1.55;;;;;;;;;;6304134;22;20491;-85
2022/07/23 10:50:34;;;;;;;2.97;1.33;;;;;;;;;;6305009;22;20463;-84
2022/07/23 10:53:13;;;;;;;6.35;1.23;;;;;;;;;;6305035;22;20398;-84
2022/07/23 10:55:41;;;;;;;3.70;1.35;;;;;;;;;;6305194;22;20027;-83
2022/07/23 10:58:09;;;;;;;1.95;1.10;;;;;;;;;;6304181;22;20034;-83
2022/07/23 11:00:36;;;;;;;2.63;1.30;;;;;;;;;;6304142;22;20023;-84
2022/07/23 11:03:08;;;;;;;3.38;1.23;;;;;;;;;;6277302;22;20034;-83
2022/07/23 11:05:43;;;;;;;1.98;1.05;;;;;;;;;;6305156;22;20023;-83
2022/07/23 11:08:11;;;;;;;4.95;1.40;;;;;;;;;;6305168;22;20511;-84
2022/07/23 11:10:52;;;;;;;2.42;1.25;;;;;;;;;;6276907;22;20023;-83
2022/07/23 11:13:22;;;;;;;5.03;1.40;;;;;;;;;;6304186;22;20063;-85
2022/07/23 11:16:04;;;;;;;2.20;1.50;;;;;;;;;;6277363;22;20020;-84
2022/07/23 11:18:41;;;;;;;5.97;1.45;;;;;;;;;;6304659;22;20086;-85
2022/07/23 11:21:23;;;;;;;3.25;1.42;;;;;;;;;;6305103;22;20023;-84
2022/07/23 11:24:08;;;;;;;3.83;1.55;;;;;;;;;;6303994;22;20059;-85
2022/07/23 11:26:41;;;;;;;2.75;1.33;;;;;;;;;;6303957;22;20051;-84
2022/07/23 11:29:36;;;;;;;4.40;1.50;;;;;;;;;;6305859;22;20036;-85
2022/07/23 11:32:19;;;;;;;3.80;1.67;;;;;;;;;;6306850;22;20107;-86
2022/07/23 11:34:46;;;;;;;;;;;;;;;;;;6307341;22;20032;-86
2022/07/23 11:37:34;;;;;;;2.58;1.48;;;;;;;;;;6304814;22;44768;-85
2022/07/23 11:40:03;;;;;;;2.17;1.10;;;;;;;;;;6304547;22;20035;-84
2022/07/23 11:42:30;;;;;;;2.40;1.35;;;;;;;;;;6303607;22;20020;-84
2022/07/23 11:44:58;;;;;;;2.63;1.30;;;;;;;;;;6278982;22;20034;-84
2022/07/23 11:47:25;;;;;;;2.03;1.20;;;;;;;;;;6289390;22;20762;-85
2022/07/23 11:49:56;;;;;;;2.25;1.38;;;;;;;;;;6322905;22;20007;-85
2022/07/23 11:52:24;;;;;;;2.92;1.65;;;;;;;;;;6327433;22;20060;-85
2022/07/23 11:54:58;;;;;;;2.30;1.30;;;;;;;;;;6326031;22;20736;-84
2022/07/23 11:57:44;;;;;;;3.70;1.27;;;;;;;;;;6313887;22;20028;-85
2022/07/23 12:00:11;;;;;;;2.03;1.30;;;;;;;;;;6309127;22;20012;-85
2022/07/23 12:02:43;;;;;;;3.58;1.40;;;;;;;;;;6307466;22;20059;-85
2022/07/23 12:05:14;;;;;;;2.33;1.40;;;;;;;;;;6307645;22;20044;-84
2022/07/23 12:07:44;;;;;;;7.97;1.52;;;;;;;;;;6306116;22;20016;-84
2022/07/23 12:10:16;;;;;;;2.80;1.45;;;;;;;;;;6279032;22;20426;-85
2022/07/23 12:12:44;;;;;;;3.35;1.52;;;;;;;;;;6306022;22;20024;-84
2022/07/23 12:15:12;;;;;;;3.10;1.35;;;;;;;;;;6278316;22;20032;-84
2022/07/23 12:17:41;;;;;;;4.10;1.30;;;;;;;;;;6276105;22;20027;-85
2022/07/23 12:20:14;;;;;;;3.60;1.50;;;;;;;;;;6279970;22;20102;-85
2022/07/23 12:22:45;;;;;;;1.95;1.40;;;;;;;;;;6304461;22;20764;-84
2022/07/23 12:25:14;;;;;;;3.60;1.60;;;;;;;;;;6302971;22;20043;-85
2022/07/23 12:27:42;;;;;;;2.97;1.60;;;;;;;;;;6303276;22;20066;-85
2022/07/23 12:30:18;;;;;;;2.65;1.30;;;;;;;;;;6305152;22;20047;-84
2022/07/23 12:32:46;;;;;;;2.35;1.60;;;;;;;;;;6302937;22;20099;-85
2022/07/23 12:35:14;;;;;;;1.50;1.30;;;;;;;;;;6304162;22;20028;-85
2022/07/23 12:37:42;;;;;;;4.70;1.55;;;;;;;;;;6304137;22;20020;-85
2022/07/23 12:40:47;;;;;;;2.35;1.42;;;;;;;;;;6303556;22;20469;-84
2022/07/23 12:43:25;;;;;;;2.90;1.58;;;;;;;;;;6124890;23;20446;-84
2022/07/23 12:45:53;;;;;;;3.70;1.50;;;;;;;;;;6125264;23;20034;-84
2022/07/23 12:48:28;;;;;;;1.80;1.20;;;;;;;;;;6147431;23;20106;-85
2022/07/23 12:50:57;;;;;;;3.42;1.50;;;;;;;;;;6147104;23;20026;-84
2022/07/23 12:53:24;;;;;;;2.88;1.63;;;;;;;;;;6147057;23;20032;-85
2022/07/23 12:55:59;;;;;;;3.80;1.40;;;;;;;;;;6123396;23;20518;-85
2022/07/23 12:59:06;;;;;;;3.13;1.50;;;;;;;;;;6150572;23;20028;-84
2022/07/23 13:01:35;;;;;;;3.30;1.75;;;;;;;;;;6178307;23;20057;-84
2022/07/23 13:04:06;;;;;;;4.22;1.30;;;;;;;;;;6178944;23;20099;-85
2022/07/23 13:06:46;;;;;;;4.88;1.55;;;;;;;;;;6178821;23;20036;-85
2022/07/23 13:09:15;;;;;;;2.85;1.50;;;;;;;;;;6178790;23;20025;-85
2022/07/23 13:11:45;;;;;;;2.60;1.60;;;;;;;;;;6177371;23;20435;-85
2022/07/23 13:14:14;;;;;;;4.05;1.67;;;;;;;;;;6247317;22;20058;-85
2022/07/23 13:16:41;;;;;;;2.08;1.30;;;;;;;;;;6276721;22;20031;-85
2022/07/23 13:19:09;;;;;;;2.80;1.48;;;;;;;;;;6275316;22;20051;-85
2022/07/23 13:21:37;;;;;;;5.28;1.60;;;;;;;;;;6304371;22;20526;-85
2022/07/23 13:24:04;;;;;;;4.25;1.48;;;;;;;;;;6304823;22;20063;-85
2022/07/23 13:26:35;;;;;;;3.35;1.35;;;;;;;;;;6305556;22;20103;-85
2022/07/23 13:29:03;;;;;;;3.47;1.55;;;;;;;;;;6304615;22;20097;-85
2022/07/23 13:31:36;;;;;;;5.40;1.50;;;;;;;;;;6305898;22;20102;-86
2022/07/23 13:34:05;;;;;;;2.20;1.40;;;;;;;;;;6278273;22;20797;-85
2022/07/23 13:36:34;;;;;;;4.97;1.60;;;;;;;;;;6303001;22;20826;-85
2022/07/23 13:39:01;;;;;;;2.50;1.40;;;;;;;;;;6303305;22;20027;-86
2022/07/23 13:41:29;;;;;;;3.15;1.63;;;;;;;;;;6304487;22;20074;-87
2022/07/23 13:43:56;;;;;;;5.40;1.50;;;;;;;;;;6278167;22;20047;-87
2022/07/23 13:46:24;;;;;;;4.28;1.60;;;;;;;;;;6278176;22;20102;-87
2022/07/23 13:48:51;;;;;;;3.03;1.77;;;;;;;;;;6304552;22;20127;-86
2022/07/23 13:51:20;;;;;;;5.95;1.83;;;;;;;;;;6303411;22;20027;-86
2022/07/23 13:53:48;;;;;;;4.85;1.75;;;;;;;;;;6303335;22;20024;-86
2022/07/23 13:56:16;;;;;;;5.53;1.75;;;;;;;;;;6304354;22;20028;-86
2022/07/23 13:58:43;;;;;;;1.70;1.30;;;;;;;;;;6305512;22;20106;-86
2022/07/23 14:01:10;;;;;;;3.05;1.60;;;;;;;;;;6305199;22;20035;-86
2022/07/23 14:03:39;;;;;;;1.67;1.30;;;;;;;;;;6305150;22;20054;-86
2022/07/23 14:06:06;;;;;;;4.43;1.50;;;;;;;;;;6273559;22;20113;-86
2022/07/23 14:08:42;;;;;;;2.88;1.52;;;;;;;;;;6276766;22;20118;-85
2022/07/23 14:11:10;;;;;;;1.75;1.40;;;;;;;;;;6304062;22;20016;-85
2022/07/23 14:13:38;;;;;;;3.53;1.50;;;;;;;;;;6309239;22;20015;-85
2022/07/23 14:16:08;;;;;;;3.35;1.88;;;;;;;;;;6303988;22;20051;-85
2022/07/23 14:18:36;;;;;;;3.22;1.50;;;;;;;;;;6277409;22;20062;-86
2022/07/23 14:21:03;;;;;;;3.47;1.60;;;;;;;;;;6302899;22;20023;-86
2022/07/23 14:23:33;;;;;;;1.70;1.50;;;;;;;;;;6309853;22;20459;-85
2022/07/23 14:26:01;;;;;;;5.43;1.70;;;;;;;;;;6313756;22;20012;-86
2022/07/23 14:28:31;;;;;;;3.95;1.58;;;;;;;;;;6320192;22;20023;-85
2022/07/23 14:30:58;;;;;;;5.13;1.73;;;;;;;;;;6325177;22;20101;-86
2022/07/23 14:33:25;;;;;;;2.40;1.60;;;;;;;;;;6324257;22;20894;-86
2022/07/23 14:35:53;;;;;;;4.40;1.85;;;;;;;;;;6313021;22;20032;-85
2022/07/23 14:38:21;;;;;;;4.85;1.90;;;;;;;;;;6307093;22;20666;-85
2022/07/23 14:40:48;;;;;;;3.22;1.63;;;;;;;;;;6319519;22;20058;-85
2022/07/23 14:43:18;;;;;;;4.75;1.77;;;;;;;;;;6300364;22;20678;-86
2022/07/23 14:45:45;;;;;;;2.42;1.52;;;;;;;;;;6311990;22;20028;-85
2022/07/23 14:48:15;;;;;;;4.22;1.90;;;;;;;;;;6307302;22;20051;-86
2022/07/23 14:50:42;;;;;;;3.65;1.65;;;;;;;;;;6276161;22;20030;-87
2022/07/23 14:53:09;;;;;;;1.77;1.50;;;;;;;;;;6305935;22;20020;-86
2022/07/23 14:55:36;;;;;;;3.08;1.60;;;;;;;;;;6276533;22;20023;-85